sensor_id;sensor_type;location;lat;lon;timestamp;temperature;humidity
67862;DHT22;54665;51.462;6.698;2023-03-25T00:01:57;9.87;77.23
67862;DHT22;54665;51.462;6.698;2023-03-25T00:04:23;10.09;76.75
67862;DHT22;54665;51.462;6.698;2023-03-25T00:06:54;9.86;76.95
67862;DHT22;54665;51.462;6.698;2023-03-25T00:09:21;9.96;77.09
67862;DHT22;54665;51.462;6.698;2023-03-25T00:11:49;10.03;76.60
67862;DHT22;54665;51.462;6.698;2023-03-25T00:14:14;10.13;76.57
67862;DHT22;54665;51.462;6.698;2023-03-25T00:16:42;10.36;75.84
67862;DHT22;54665;51.462;6.698;2023-03-25T00:19:07;10.29;75.97
67862;DHT22;54665;51.462;6.698;2023-03-25T00:21:33;10.36;75.91
67862;DHT22;54665;51.462;6.698;2023-03-25T00:23:59;10.27;76.21
67862;DHT22;54665;51.462;6.698;2023-03-25T00:26:25;10.37;76.29
67862;DHT22;54665;51.462;6.698;2023-03-25T00:28:54;10.48;76.28
67862;DHT22;54665;51.462;6.698;2023-03-25T00:31:20;10.34;76.57
67862;DHT22;54665;51.462;6.698;2023-03-25T00:33:45;10.46;76.35
67862;DHT22;54665;51.462;6.698;2023-03-25T00:36:11;10.44;76.38
67862;DHT22;54665;51.462;6.698;2023-03-25T00:38:42;10.44;76.50
67862;DHT22;54665;51.462;6.698;2023-03-25T00:41:16;10.40;76.59
67862;DHT22;54665;51.462;6.698;2023-03-25T00:43:43;10.56;76.16
67862;DHT22;54665;51.462;6.698;2023-03-25T00:46:09;10.57;76.10
67862;DHT22;54665;51.462;6.698;2023-03-25T00:48:35;10.44;76.48
67862;DHT22;54665;51.462;6.698;2023-03-25T00:51:01;10.54;76.18
67862;DHT22;54665;51.462;6.698;2023-03-25T00:53:32;10.48;76.50
67862;DHT22;54665;51.462;6.698;2023-03-25T00:55:58;10.58;76.13
67862;DHT22;54665;51.462;6.698;2023-03-25T00:58:24;10.50;75.63
67862;DHT22;54665;51.462;6.698;2023-03-25T01:00:50;10.60;75.67
67862;DHT22;54665;51.462;6.698;2023-03-25T01:03:15;10.60;75.67
67862;DHT22;54665;51.462;6.698;2023-03-25T01:05:41;10.61;75.63
67862;DHT22;54665;51.462;6.698;2023-03-25T01:08:06;10.54;75.41
67862;DHT22;54665;51.462;6.698;2023-03-25T01:10:35;10.48;75.77
67862;DHT22;54665;51.462;6.698;2023-03-25T01:13:01;10.50;74.94
67862;DHT22;54665;51.462;6.698;2023-03-25T01:15:26;10.68;74.86
67862;DHT22;54665;51.462;6.698;2023-03-25T01:17:51;10.63;75.32
67862;DHT22;54665;51.462;6.698;2023-03-25T01:20:17;10.68;75.14
67862;DHT22;54665;51.462;6.698;2023-03-25T01:22:42;10.54;75.09
67862;DHT22;54665;51.462;6.698;2023-03-25T01:25:09;10.57;75.12
67862;DHT22;54665;51.462;6.698;2023-03-25T01:27:34;10.71;74.99
67862;DHT22;54665;51.462;6.698;2023-03-25T01:30:00;10.69;74.67
67862;DHT22;54665;51.462;6.698;2023-03-25T01:32:27;10.57;74.77
67862;DHT22;54665;51.462;6.698;2023-03-25T01:34:53;10.74;74.12
67862;DHT22;54665;51.462;6.698;2023-03-25T01:37:18;10.43;74.57
67862;DHT22;54665;51.462;6.698;2023-03-25T01:39:44;10.69;74.10
67862;DHT22;54665;51.462;6.698;2023-03-25T01:42:10;10.72;73.76
67862;DHT22;54665;51.462;6.698;2023-03-25T01:47:02;10.48;73.84
67862;DHT22;54665;51.462;6.698;2023-03-25T01:49:35;10.63;73.32
67862;DHT22;54665;51.462;6.698;2023-03-25T01:52:13;10.47;73.61
67862;DHT22;54665;51.462;6.698;2023-03-25T01:54:39;10.53;73.77
67862;DHT22;54665;51.462;6.698;2023-03-25T01:57:08;10.43;73.39
67862;DHT22;54665;51.462;6.698;2023-03-25T01:59:35;10.37;73.47
67862;DHT22;54665;51.462;6.698;2023-03-25T02:02:03;10.51;73.16
67862;DHT22;54665;51.462;6.698;2023-03-25T02:04:36;10.56;73.46
67862;DHT22;54665;51.462;6.698;2023-03-25T02:07:03;10.37;73.42
67862;DHT22;54665;51.462;6.698;2023-03-25T02:09:32;10.16;73.24
67862;DHT22;54665;51.462;6.698;2023-03-25T02:11:57;10.33;72.91
67862;DHT22;54665;51.462;6.698;2023-03-25T02:14:29;10.20;73.47
67862;DHT22;54665;51.462;6.698;2023-03-25T02:28:38;10.19;72.92
67862;DHT22;54665;51.462;6.698;2023-03-25T02:34:18;10.03;73.42
67862;DHT22;54665;51.462;6.698;2023-03-25T02:39:29;9.85;74.08
67862;DHT22;54665;51.462;6.698;2023-03-25T02:47:04;9.83;74.45
67862;DHT22;54665;51.462;6.698;2023-03-25T02:49:37;9.90;74.49
67862;DHT22;54665;51.462;6.698;2023-03-25T02:52:14;9.89;74.81
67862;DHT22;54665;51.462;6.698;2023-03-25T02:54:42;9.86;74.63
67862;DHT22;54665;51.462;6.698;2023-03-25T02:57:11;10.00;74.14
67862;DHT22;54665;51.462;6.698;2023-03-25T02:59:39;9.96;74.12
67862;DHT22;54665;51.462;6.698;2023-03-25T03:02:09;10.00;74.33
67862;DHT22;54665;51.462;6.698;2023-03-25T03:04:49;10.07;74.02
67862;DHT22;54665;51.462;6.698;2023-03-25T03:07:21;9.97;73.98
67862;DHT22;54665;51.462;6.698;2023-03-25T03:10:16;9.97;74.29
67862;DHT22;54665;51.462;6.698;2023-03-25T03:15:24;10.10;73.90
67862;DHT22;54665;51.462;6.698;2023-03-25T03:18:13;10.05;74.15
67862;DHT22;54665;51.462;6.698;2023-03-25T03:20:53;10.03;74.33
67862;DHT22;54665;51.462;6.698;2023-03-25T03:29:16;9.72;76.56
67862;DHT22;54665;51.462;6.698;2023-03-25T03:31:56;9.54;76.85
67862;DHT22;54665;51.462;6.698;2023-03-25T03:34:32;9.71;76.30
67862;DHT22;54665;51.462;6.698;2023-03-25T03:37:00;9.76;75.73
67862;DHT22;54665;51.462;6.698;2023-03-25T03:39:31;9.93;75.57
67862;DHT22;54665;51.462;6.698;2023-03-25T03:42:17;9.86;75.50
67862;DHT22;54665;51.462;6.698;2023-03-25T03:44:49;9.79;75.46
67862;DHT22;54665;51.462;6.698;2023-03-25T03:47:21;9.89;75.84
67862;DHT22;54665;51.462;6.698;2023-03-25T03:49:55;9.96;75.63
67862;DHT22;54665;51.462;6.698;2023-03-25T03:52:27;9.75;76.24
67862;DHT22;54665;51.462;6.698;2023-03-25T03:55:05;9.74;76.85
67862;DHT22;54665;51.462;6.698;2023-03-25T03:57:41;9.78;77.49
67862;DHT22;54665;51.462;6.698;2023-03-25T04:02:41;9.74;77.62
67862;DHT22;54665;51.462;6.698;2023-03-25T04:05:11;9.79;76.48
67862;DHT22;54665;51.462;6.698;2023-03-25T04:07:50;9.76;75.74
67862;DHT22;54665;51.462;6.698;2023-03-25T04:10:40;9.87;76.47
67862;DHT22;54665;51.462;6.698;2023-03-25T04:13:12;9.83;77.10
67862;DHT22;54665;51.462;6.698;2023-03-25T04:15:39;9.56;77.76
67862;DHT22;54665;51.462;6.698;2023-03-25T04:18:05;9.71;77.73
67862;DHT22;54665;51.462;6.698;2023-03-25T04:20:32;9.75;77.51
67862;DHT22;54665;51.462;6.698;2023-03-25T04:23:02;9.62;77.31
67862;DHT22;54665;51.462;6.698;2023-03-25T04:25:29;9.74;76.93
67862;DHT22;54665;51.462;6.698;2023-03-25T04:27:57;9.72;75.88
67862;DHT22;54665;51.462;6.698;2023-03-25T04:30:24;9.79;76.04
67862;DHT22;54665;51.462;6.698;2023-03-25T04:32:50;9.85;76.19
67862;DHT22;54665;51.462;6.698;2023-03-25T04:35:17;9.72;76.20
67862;DHT22;54665;51.462;6.698;2023-03-25T04:37:44;9.82;75.80
67862;DHT22;54665;51.462;6.698;2023-03-25T04:40:19;9.87;75.73
67862;DHT22;54665;51.462;6.698;2023-03-25T04:42:45;9.72;75.41
67862;DHT22;54665;51.462;6.698;2023-03-25T04:45:12;9.89;75.43
67862;DHT22;54665;51.462;6.698;2023-03-25T04:47:41;10.02;75.35
67862;DHT22;54665;51.462;6.698;2023-03-25T04:50:29;9.87;75.92
67862;DHT22;54665;51.462;6.698;2023-03-25T04:52:56;9.82;76.84
67862;DHT22;54665;51.462;6.698;2023-03-25T04:55:23;9.87;76.67
67862;DHT22;54665;51.462;6.698;2023-03-25T04:57:51;9.76;76.43
67862;DHT22;54665;51.462;6.698;2023-03-25T05:00:21;9.74;77.12
67862;DHT22;54665;51.462;6.698;2023-03-25T05:02:50;9.72;76.70
67862;DHT22;54665;51.462;6.698;2023-03-25T05:05:17;9.75;75.87
67862;DHT22;54665;51.462;6.698;2023-03-25T05:07:47;9.76;75.59
67862;DHT22;54665;51.462;6.698;2023-03-25T05:10:18;9.85;75.17
67862;DHT22;54665;51.462;6.698;2023-03-25T05:12:45;9.96;74.38
67862;DHT22;54665;51.462;6.698;2023-03-25T05:15:11;10.05;74.01
67862;DHT22;54665;51.462;6.698;2023-03-25T05:17:38;9.87;74.32
67862;DHT22;54665;51.462;6.698;2023-03-25T05:20:05;9.83;74.26
67862;DHT22;54665;51.462;6.698;2023-03-25T05:22:33;9.89;74.67
67862;DHT22;54665;51.462;6.698;2023-03-25T05:24:58;9.81;74.82
67862;DHT22;54665;51.462;6.698;2023-03-25T05:27:27;9.76;74.70
67862;DHT22;54665;51.462;6.698;2023-03-25T05:29:55;9.93;74.84
67862;DHT22;54665;51.462;6.698;2023-03-25T05:32:23;9.89;74.15
67862;DHT22;54665;51.462;6.698;2023-03-25T05:34:52;9.92;74.41
67862;DHT22;54665;51.462;6.698;2023-03-25T05:37:18;10.09;74.32
67862;DHT22;54665;51.462;6.698;2023-03-25T05:39:43;9.95;74.55
67862;DHT22;54665;51.462;6.698;2023-03-25T05:42:09;9.92;74.34
67862;DHT22;54665;51.462;6.698;2023-03-25T05:44:35;10.05;73.82
67862;DHT22;54665;51.462;6.698;2023-03-25T05:47:00;9.99;74.19
67862;DHT22;54665;51.462;6.698;2023-03-25T05:49:26;9.87;74.71
67862;DHT22;54665;51.462;6.698;2023-03-25T05:51:52;10.10;74.47
67862;DHT22;54665;51.462;6.698;2023-03-25T05:54:21;9.99;74.15
67862;DHT22;54665;51.462;6.698;2023-03-25T05:56:51;9.99;74.15
67862;DHT22;54665;51.462;6.698;2023-03-25T05:59:17;10.17;74.11
67862;DHT22;54665;51.462;6.698;2023-03-25T06:01:43;9.97;74.45
67862;DHT22;54665;51.462;6.698;2023-03-25T06:04:10;10.02;74.38
67862;DHT22;54665;51.462;6.698;2023-03-25T06:06:38;10.14;74.45
67862;DHT22;54665;51.462;6.698;2023-03-25T06:09:05;10.14;74.67
67862;DHT22;54665;51.462;6.698;2023-03-25T06:11:31;10.21;73.99
67862;DHT22;54665;51.462;6.698;2023-03-25T06:14:03;10.20;74.33
67862;DHT22;54665;51.462;6.698;2023-03-25T06:16:29;10.16;74.62
67862;DHT22;54665;51.462;6.698;2023-03-25T06:18:56;10.20;74.25
67862;DHT22;54665;51.462;6.698;2023-03-25T06:21:25;10.16;74.30
67862;DHT22;54665;51.462;6.698;2023-03-25T06:23:51;10.07;74.92
67862;DHT22;54665;51.462;6.698;2023-03-25T06:26:19;10.13;74.73
67862;DHT22;54665;51.462;6.698;2023-03-25T06:28:45;10.12;74.34
67862;DHT22;54665;51.462;6.698;2023-03-25T06:31:21;10.24;74.41
67862;DHT22;54665;51.462;6.698;2023-03-25T06:33:50;10.17;75.08
67862;DHT22;54665;51.462;6.698;2023-03-25T06:36:17;10.03;74.88
67862;DHT22;54665;51.462;6.698;2023-03-25T06:38:45;10.47;74.38
67862;DHT22;54665;51.462;6.698;2023-03-25T06:41:13;10.14;74.47
67862;DHT22;54665;51.462;6.698;2023-03-25T06:43:40;10.53;74.46
67862;DHT22;54665;51.462;6.698;2023-03-25T06:46:35;10.64;74.32
67862;DHT22;54665;51.462;6.698;2023-03-25T06:49:14;10.51;73.64
67862;DHT22;54665;51.462;6.698;2023-03-25T06:51:39;10.44;74.11
67862;DHT22;54665;51.462;6.698;2023-03-25T06:54:05;10.47;74.37
67862;DHT22;54665;51.462;6.698;2023-03-25T06:56:30;10.24;75.24
67862;DHT22;54665;51.462;6.698;2023-03-25T06:58:55;10.26;75.44
67862;DHT22;54665;51.462;6.698;2023-03-25T07:01:21;10.34;75.25
67862;DHT22;54665;51.462;6.698;2023-03-25T07:03:46;10.24;75.44
67862;DHT22;54665;51.462;6.698;2023-03-25T07:06:16;10.56;75.25
67862;DHT22;54665;51.462;6.698;2023-03-25T07:08:42;10.85;74.44
67862;DHT22;54665;51.462;6.698;2023-03-25T07:11:08;10.71;74.49
67862;DHT22;54665;51.462;6.698;2023-03-25T07:13:34;10.58;75.30
67862;DHT22;54665;51.462;6.698;2023-03-25T07:15:59;10.33;75.29
67862;DHT22;54665;51.462;6.698;2023-03-25T07:18:25;10.47;75.66
67862;DHT22;54665;51.462;6.698;2023-03-25T07:20:51;10.51;75.34
67862;DHT22;54665;51.462;6.698;2023-03-25T07:23:16;10.68;74.77
67862;DHT22;54665;51.462;6.698;2023-03-25T07:25:42;10.50;75.15
67862;DHT22;54665;51.462;6.698;2023-03-25T07:28:07;10.47;74.52
67862;DHT22;54665;51.462;6.698;2023-03-25T07:30:38;10.19;75.54
67862;DHT22;54665;51.462;6.698;2023-03-25T07:33:04;10.23;75.49
67862;DHT22;54665;51.462;6.698;2023-03-25T07:35:29;10.23;74.87
67862;DHT22;54665;51.462;6.698;2023-03-25T07:37:55;10.32;75.12
67862;DHT22;54665;51.462;6.698;2023-03-25T07:40:20;10.27;74.50
67862;DHT22;54665;51.462;6.698;2023-03-25T07:42:45;10.54;74.04
67862;DHT22;54665;51.462;6.698;2023-03-25T07:45:22;10.64;73.20
67862;DHT22;54665;51.462;6.698;2023-03-25T07:47:50;10.64;73.11
67862;DHT22;54665;51.462;6.698;2023-03-25T07:50:18;10.72;72.92
67862;DHT22;54665;51.462;6.698;2023-03-25T07:52:44;10.65;72.82
67862;DHT22;54665;51.462;6.698;2023-03-25T07:55:09;10.89;71.23
67862;DHT22;54665;51.462;6.698;2023-03-25T07:57:35;11.05;70.67
67862;DHT22;54665;51.462;6.698;2023-03-25T08:00:00;11.05;70.36
67862;DHT22;54665;51.462;6.698;2023-03-25T08:02:26;11.05;68.50
67862;DHT22;54665;51.462;6.698;2023-03-25T08:04:51;11.49;68.18
67862;DHT22;54665;51.462;6.698;2023-03-25T08:07:20;11.46;67.30
67862;DHT22;54665;51.462;6.698;2023-03-25T08:09:45;11.73;67.00
67862;DHT22;54665;51.462;6.698;2023-03-25T08:12:11;11.28;67.45
67862;DHT22;54665;51.462;6.698;2023-03-25T08:14:36;11.62;67.10
67862;DHT22;54665;51.462;6.698;2023-03-25T08:17:04;11.40;66.80
67862;DHT22;54665;51.462;6.698;2023-03-25T08:19:30;11.14;66.76
67862;DHT22;54665;51.462;6.698;2023-03-25T08:21:55;11.20;67.07
67862;DHT22;54665;51.462;6.698;2023-03-25T08:24:20;10.97;67.24
67862;DHT22;54665;51.462;6.698;2023-03-25T08:26:46;11.33;66.70
67862;DHT22;54665;51.462;6.698;2023-03-25T08:29:12;11.42;66.91
67862;DHT22;54665;51.462;6.698;2023-03-25T08:31:37;11.79;66.02
67862;DHT22;54665;51.462;6.698;2023-03-25T08:34:04;11.94;65.76
67862;DHT22;54665;51.462;6.698;2023-03-25T08:36:30;11.83;65.50
67862;DHT22;54665;51.462;6.698;2023-03-25T08:38:56;11.49;67.33
67862;DHT22;54665;51.462;6.698;2023-03-25T08:41:21;11.59;68.18
67862;DHT22;54665;51.462;6.698;2023-03-25T08:43:48;11.38;68.91
67862;DHT22;54665;51.462;6.698;2023-03-25T08:46:14;11.02;68.82
67862;DHT22;54665;51.462;6.698;2023-03-25T08:48:39;11.15;69.45
67862;DHT22;54665;51.462;6.698;2023-03-25T08:51:05;11.55;69.60
67862;DHT22;54665;51.462;6.698;2023-03-25T08:53:31;11.44;69.65
67862;DHT22;54665;51.462;6.698;2023-03-25T08:55:57;11.22;68.40
67862;DHT22;54665;51.462;6.698;2023-03-25T08:58:24;11.40;68.71
67862;DHT22;54665;51.462;6.698;2023-03-25T09:00:51;11.60;68.44
67862;DHT22;54665;51.462;6.698;2023-03-25T09:03:19;11.43;67.98
67862;DHT22;54665;51.462;6.698;2023-03-25T09:05:46;11.66;67.51
67862;DHT22;54665;51.462;6.698;2023-03-25T09:08:11;11.44;68.24
67862;DHT22;54665;51.462;6.698;2023-03-25T09:10:37;11.47;68.75
67862;DHT22;54665;51.462;6.698;2023-03-25T09:13:03;11.36;69.98
67862;DHT22;54665;51.462;6.698;2023-03-25T09:15:28;11.20;70.81
67862;DHT22;54665;51.462;6.698;2023-03-25T09:17:53;11.14;71.09
67862;DHT22;54665;51.462;6.698;2023-03-25T09:20:19;10.77;73.46
67862;DHT22;54665;51.462;6.698;2023-03-25T09:22:44;10.87;73.95
67862;DHT22;54665;51.462;6.698;2023-03-25T09:25:10;11.04;73.74
67862;DHT22;54665;51.462;6.698;2023-03-25T09:27:36;11.26;71.62
67862;DHT22;54665;51.462;6.698;2023-03-25T09:30:03;11.69;70.35
67862;DHT22;54665;51.462;6.698;2023-03-25T09:32:29;11.67;70.44
67862;DHT22;54665;51.462;6.698;2023-03-25T09:34:55;11.59;71.01
67862;DHT22;54665;51.462;6.698;2023-03-25T09:37:20;11.60;70.06
67862;DHT22;54665;51.462;6.698;2023-03-25T09:39:46;11.67;69.16
67862;DHT22;54665;51.462;6.698;2023-03-25T09:45:31;12.01;66.90
67862;DHT22;54665;51.462;6.698;2023-03-25T09:48:03;12.07;68.84
67862;DHT22;54665;51.462;6.698;2023-03-25T09:50:31;11.67;68.26
67862;DHT22;54665;51.462;6.698;2023-03-25T09:53:02;11.28;69.13
67862;DHT22;54665;51.462;6.698;2023-03-25T09:55:33;11.28;70.94
67862;DHT22;54665;51.462;6.698;2023-03-25T10:01:27;11.07;70.86
67862;DHT22;54665;51.462;6.698;2023-03-25T10:12:36;10.87;73.63
67862;DHT22;54665;51.462;6.698;2023-03-25T10:23:42;11.16;74.03
67862;DHT22;54665;51.462;6.698;2023-03-25T10:26:50;11.28;72.60
67862;DHT22;54665;51.462;6.698;2023-03-25T10:32:15;11.14;73.03
67862;DHT22;54665;51.462;6.698;2023-03-25T10:34:48;11.38;70.80
67862;DHT22;54665;51.462;6.698;2023-03-25T10:37:18;11.52;69.59
67862;DHT22;54665;51.462;6.698;2023-03-25T10:39:48;12.04;70.21
67862;DHT22;54665;51.462;6.698;2023-03-25T10:42:22;12.00;68.81
67862;DHT22;54665;51.462;6.698;2023-03-25T10:44:48;11.80;69.71
67862;DHT22;54665;51.462;6.698;2023-03-25T10:47:24;11.16;74.62
67862;DHT22;54665;51.462;6.698;2023-03-25T10:49:53;10.87;74.45
67862;DHT22;54665;51.462;6.698;2023-03-25T10:52:19;10.87;75.68
67862;DHT22;54665;51.462;6.698;2023-03-25T10:54:49;10.77;74.90
67862;DHT22;54665;51.462;6.698;2023-03-25T10:57:22;10.75;74.85
67862;DHT22;54665;51.462;6.698;2023-03-25T10:59:54;11.11;75.29
67862;DHT22;54665;51.462;6.698;2023-03-25T11:02:24;11.23;73.79
67862;DHT22;54665;51.462;6.698;2023-03-25T11:05:00;12.16;72.01
67862;DHT22;54665;51.462;6.698;2023-03-25T11:07:35;12.93;68.35
67862;DHT22;54665;51.462;6.698;2023-03-25T11:12:39;13.33;68.12
67862;DHT22;54665;51.462;6.698;2023-03-25T11:15:14;13.16;67.44
67862;DHT22;54665;51.462;6.698;2023-03-25T11:17:41;13.40;66.90
67862;DHT22;54665;51.462;6.698;2023-03-25T11:20:16;13.75;66.42
67862;DHT22;54665;51.462;6.698;2023-03-25T11:22:49;14.12;66.25
67862;DHT22;54665;51.462;6.698;2023-03-25T11:27:47;13.98;65.88
67862;DHT22;54665;51.462;6.698;2023-03-25T11:30:19;13.70;66.32
67862;DHT22;54665;51.462;6.698;2023-03-25T11:33:05;14.13;65.45
67862;DHT22;54665;51.462;6.698;2023-03-25T11:35:36;14.87;64.34
67862;DHT22;54665;51.462;6.698;2023-03-25T11:38:14;14.88;63.02
67862;DHT22;54665;51.462;6.698;2023-03-25T11:40:55;14.50;60.55
67862;DHT22;54665;51.462;6.698;2023-03-25T11:43:23;14.39;62.37
67862;DHT22;54665;51.462;6.698;2023-03-25T11:45:50;14.00;61.16
67862;DHT22;54665;51.462;6.698;2023-03-25T11:48:18;14.00;61.93
67862;DHT22;54665;51.462;6.698;2023-03-25T11:50:56;13.55;62.11
67862;DHT22;54665;51.462;6.698;2023-03-25T11:53:25;13.81;63.14
67862;DHT22;54665;51.462;6.698;2023-03-25T11:55:55;14.26;62.89
67862;DHT22;54665;51.462;6.698;2023-03-25T11:58:25;14.60;62.20
67862;DHT22;54665;51.462;6.698;2023-03-25T12:01:00;13.75;62.36
67862;DHT22;54665;51.462;6.698;2023-03-25T12:03:28;13.98;63.69
67862;DHT22;54665;51.462;6.698;2023-03-25T12:08:47;14.56;63.11
67862;DHT22;54665;51.462;6.698;2023-03-25T12:11:23;14.13;62.08
67862;DHT22;54665;51.462;6.698;2023-03-25T12:17:04;14.84;59.66
67862;DHT22;54665;51.462;6.698;2023-03-25T12:24:41;14.02;62.21
67862;DHT22;54665;51.462;6.698;2023-03-25T12:29:57;13.40;63.27
67862;DHT22;54665;51.462;6.698;2023-03-25T12:35:14;14.00;62.40
67862;DHT22;54665;51.462;6.698;2023-03-25T12:37:52;14.00;61.09
67862;DHT22;54665;51.462;6.698;2023-03-25T12:40:43;14.60;61.74
67862;DHT22;54665;51.462;6.698;2023-03-25T12:43:21;14.21;61.08
67862;DHT22;54665;51.462;6.698;2023-03-25T12:53:38;13.77;60.87
67862;DHT22;54665;51.462;6.698;2023-03-25T13:02:01;13.07;65.09
67862;DHT22;54665;51.462;6.698;2023-03-25T13:04:54;13.12;64.72
67862;DHT22;54665;51.462;6.698;2023-03-25T13:07:43;14.33;62.39
67862;DHT22;54665;51.462;6.698;2023-03-25T13:23:21;14.85;62.09
67862;DHT22;54665;51.462;6.698;2023-03-25T13:25:58;15.05;60.69
67862;DHT22;54665;51.462;6.698;2023-03-25T13:28:28;14.43;60.30
67862;DHT22;54665;51.462;6.698;2023-03-25T13:31:04;14.11;61.57
67862;DHT22;54665;51.462;6.698;2023-03-25T13:33:32;13.27;64.13
67862;DHT22;54665;51.462;6.698;2023-03-25T13:36:08;12.61;66.42
67862;DHT22;54665;51.462;6.698;2023-03-25T13:38:48;12.04;68.13
67862;DHT22;54665;51.462;6.698;2023-03-25T13:41:25;12.14;70.66
67862;DHT22;54665;51.462;6.698;2023-03-25T13:44:07;12.28;71.56
67862;DHT22;54665;51.462;6.698;2023-03-25T13:46:54;12.08;72.70
67862;DHT22;54665;51.462;6.698;2023-03-25T13:49:27;11.70;73.40
67862;DHT22;54665;51.462;6.698;2023-03-25T13:51:54;11.55;75.14
67862;DHT22;54665;51.462;6.698;2023-03-25T13:54:30;11.76;74.94
67862;DHT22;54665;51.462;6.698;2023-03-25T14:11:28;11.25;77.29
67862;DHT22;54665;51.462;6.698;2023-03-25T14:14:19;11.04;77.94
67862;DHT22;54665;51.462;6.698;2023-03-25T14:16:46;10.68;79.83
67862;DHT22;54665;51.462;6.698;2023-03-25T14:19:16;10.46;80.77
67862;DHT22;54665;51.462;6.698;2023-03-25T14:21:47;10.30;82.78
67862;DHT22;54665;51.462;6.698;2023-03-25T14:24:24;10.32;81.93
67862;DHT22;54665;51.462;6.698;2023-03-25T14:26:55;10.44;82.26
67862;DHT22;54665;51.462;6.698;2023-03-25T14:29:44;10.34;81.43
67862;DHT22;54665;51.462;6.698;2023-03-25T14:34:39;10.85;78.14
67862;DHT22;54665;51.462;6.698;2023-03-25T14:42:10;11.28;76.32
67862;DHT22;54665;51.462;6.698;2023-03-25T14:44:41;11.14;76.43
67862;DHT22;54665;51.462;6.698;2023-03-25T14:52:49;11.02;77.14
67862;DHT22;54665;51.462;6.698;2023-03-25T14:55:20;10.79;77.41
67862;DHT22;54665;51.462;6.698;2023-03-25T14:57:47;10.65;78.03
67862;DHT22;54665;51.462;6.698;2023-03-25T15:00:39;10.75;77.08
67862;DHT22;54665;51.462;6.698;2023-03-25T15:03:11;10.54;76.50
67862;DHT22;54665;51.462;6.698;2023-03-25T15:05:38;10.89;76.79
67862;DHT22;54665;51.462;6.698;2023-03-25T15:10:43;10.53;77.14
67862;DHT22;54665;51.462;6.698;2023-03-25T15:13:25;10.85;77.51
67862;DHT22;54665;51.462;6.698;2023-03-25T15:16:04;11.73;75.02
67862;DHT22;54665;51.462;6.698;2023-03-25T15:23:46;11.70;73.88
67862;DHT22;54665;51.462;6.698;2023-03-25T15:26:25;12.35;71.69
67862;DHT22;54665;51.462;6.698;2023-03-25T15:29:06;12.34;70.94
67862;DHT22;54665;51.462;6.698;2023-03-25T15:31:48;12.76;71.09
67862;DHT22;54665;51.462;6.698;2023-03-25T15:34:43;12.41;71.93
67862;DHT22;54665;51.462;6.698;2023-03-25T15:53:30;12.65;71.18
67862;DHT22;54665;51.462;6.698;2023-03-25T15:56:01;12.66;68.93
67862;DHT22;54665;51.462;6.698;2023-03-25T15:58:35;12.75;67.86
67862;DHT22;54665;51.462;6.698;2023-03-25T16:01:13;13.09;68.19
67862;DHT22;54665;51.462;6.698;2023-03-25T16:03:40;13.23;68.67
67862;DHT22;54665;51.462;6.698;2023-03-25T16:06:12;13.27;69.78
67862;DHT22;54665;51.462;6.698;2023-03-25T16:08:40;12.46;70.61
67862;DHT22;54665;51.462;6.698;2023-03-25T16:13:57;12.58;72.68
67862;DHT22;54665;51.462;6.698;2023-03-25T16:16:24;12.42;73.79
67862;DHT22;54665;51.462;6.698;2023-03-25T16:18:53;12.44;74.99
67862;DHT22;54665;51.462;6.698;2023-03-25T16:21:20;12.37;74.18
67862;DHT22;54665;51.462;6.698;2023-03-25T16:23:45;12.37;75.17
67862;DHT22;54665;51.462;6.698;2023-03-25T16:26:12;12.27;74.76
67862;DHT22;54665;51.462;6.698;2023-03-25T16:28:40;12.28;75.89
67862;DHT22;54665;51.462;6.698;2023-03-25T16:31:30;12.46;75.67
67862;DHT22;54665;51.462;6.698;2023-03-25T16:33:59;12.35;76.35
67862;DHT22;54665;51.462;6.698;2023-03-25T16:36:26;12.39;74.72
67862;DHT22;54665;51.462;6.698;2023-03-25T16:38:52;12.46;75.09
67862;DHT22;54665;51.462;6.698;2023-03-25T16:41:18;12.48;73.73
67862;DHT22;54665;51.462;6.698;2023-03-25T16:43:43;12.72;72.74
67862;DHT22;54665;51.462;6.698;2023-03-25T16:46:10;12.76;72.52
67862;DHT22;54665;51.462;6.698;2023-03-25T16:48:39;12.86;71.98
67862;DHT22;54665;51.462;6.698;2023-03-25T16:51:37;12.68;72.09
67862;DHT22;54665;51.462;6.698;2023-03-25T16:54:17;12.72;71.88
67862;DHT22;54665;51.462;6.698;2023-03-25T16:56:44;12.56;72.61
67862;DHT22;54665;51.462;6.698;2023-03-25T17:01:42;12.52;72.38
67862;DHT22;54665;51.462;6.698;2023-03-25T17:04:14;12.28;72.66
67862;DHT22;54665;51.462;6.698;2023-03-25T17:06:43;12.42;72.55
67862;DHT22;54665;51.462;6.698;2023-03-25T17:09:15;12.30;72.35
67862;DHT22;54665;51.462;6.698;2023-03-25T17:11:43;12.18;72.65
67862;DHT22;54665;51.462;6.698;2023-03-25T17:14:19;12.20;72.93
67862;DHT22;54665;51.462;6.698;2023-03-25T17:16:48;12.11;73.57
67862;DHT22;54665;51.462;6.698;2023-03-25T17:19:16;11.87;74.42
67862;DHT22;54665;51.462;6.698;2023-03-25T17:22:03;11.44;75.74
67862;DHT22;54665;51.462;6.698;2023-03-25T17:24:36;11.36;75.65
67862;DHT22;54665;51.462;6.698;2023-03-25T17:27:25;11.15;77.40
67862;DHT22;54665;51.462;6.698;2023-03-25T17:30:32;10.77;78.61
67862;DHT22;54665;51.462;6.698;2023-03-25T17:33:28;10.68;79.79
67862;DHT22;54665;51.462;6.698;2023-03-25T17:35:59;10.65;79.76
67862;DHT22;54665;51.462;6.698;2023-03-25T17:38:28;10.69;80.13
67862;DHT22;54665;51.462;6.698;2023-03-25T17:41:07;10.64;79.75
67862;DHT22;54665;51.462;6.698;2023-03-25T17:43:36;10.77;79.69
67862;DHT22;54665;51.462;6.698;2023-03-25T17:46:05;10.69;78.66
67862;DHT22;54665;51.462;6.698;2023-03-25T17:48:30;10.75;78.28
67862;DHT22;54665;51.462;6.698;2023-03-25T17:50:56;10.71;78.19
67862;DHT22;54665;51.462;6.698;2023-03-25T17:53:22;10.87;77.95
67862;DHT22;54665;51.462;6.698;2023-03-25T17:55:48;10.81;78.59
67862;DHT22;54665;51.462;6.698;2023-03-25T17:58:14;10.69;78.15
67862;DHT22;54665;51.462;6.698;2023-03-25T18:00:41;10.74;78.20
67862;DHT22;54665;51.462;6.698;2023-03-25T18:03:25;10.69;77.84
67862;DHT22;54665;51.462;6.698;2023-03-25T18:05:53;10.87;77.90
67862;DHT22;54665;51.462;6.698;2023-03-25T18:08:21;10.78;78.07
67862;DHT22;54665;51.462;6.698;2023-03-25T18:10:48;10.71;77.08
67862;DHT22;54665;51.462;6.698;2023-03-25T18:13:14;10.78;77.80
67862;DHT22;54665;51.462;6.698;2023-03-25T18:15:39;10.68;77.55
67862;DHT22;54665;51.462;6.698;2023-03-25T18:18:05;10.68;77.26
67862;DHT22;54665;51.462;6.698;2023-03-25T18:20:34;10.79;76.20
67862;DHT22;54665;51.462;6.698;2023-03-25T18:23:00;10.77;76.27
67862;DHT22;54665;51.462;6.698;2023-03-25T18:25:26;10.77;76.21
67862;DHT22;54665;51.462;6.698;2023-03-25T18:27:54;10.67;75.98
67862;DHT22;54665;51.462;6.698;2023-03-25T18:30:27;10.57;75.57
67862;DHT22;54665;51.462;6.698;2023-03-25T18:32:53;10.69;75.73
67862;DHT22;54665;51.462;6.698;2023-03-25T18:35:18;10.64;76.13
67862;DHT22;54665;51.462;6.698;2023-03-25T18:37:44;10.67;76.13
67862;DHT22;54665;51.462;6.698;2023-03-25T18:40:22;10.67;75.97